Ever Liven — BKIE — position and weather

sailwx.info

Track history (hours):
 
Tides and Currents Weather Stations Pressure Air Temp Water Temp Dewpoint Dewpoint Depression Visibility Wind Speed Wind Dir Waves Ship Positions

Ever Liven

Last reported at 2017-Oct-14 00:39 UTC. Time now 2017-Oct-17 22:34 UTC.
Position N 30°22' E 121°50'.

Length 335 m; draft 9.5 m.

Type: Ship (hazmat cat D). MMSI: 416481000.

Date/timePositionNaut miles runAvg speedWind from/ knotsBaromVisibWave heightAir tempDewpointWater temp
2017-Oct-14 00:39N 30°22' E 121°50'8 9.6
2017-Oct-13 23:50N 30°23' E 121°59'2 7.3
2017-Oct-13 23:30N 30°23' E 122°02'5 7.4
2017-Oct-13 22:50N 30°23' E 122°07'3 8.0
2017-Oct-13 22:30N 30°23' E 122°10'47 5.1
2017-Oct-13 13:26N 31°05' E 122°33'614.4
2017-Oct-13 13:00N 31°06' E 122°26'714.6
2017-Oct-13 12:30N 31°07' E 122°17'714.5
2017-Oct-13 12:01N 31°11' E 122°10'611.3
2017-Oct-13 11:30N 31°14' E 122°05'714.7
2017-Oct-13 11:01N 31°15' E 121°56'714.3
2017-Oct-13 10:31N 31°17' E 121°48'612.4
2017-Oct-13 10:01N 31°20' E 121°42'510.0
2017-Oct-13 09:31N 31°22' E 121°37'1 2.9
2017-Oct-13 09:01N 31°22' E 121°35'0 0.0
2017-Oct-13 08:31N 31°22' E 121°35'0 0.0
2017-Oct-13 07:59N 31°22' E 121°35'0 0.0
2017-Oct-13 07:29N 31°22' E 121°35'0 0.0
2017-Oct-13 06:59N 31°22' E 121°35'0 0.0
2017-Oct-13 06:29N 31°22' E 121°35'0 0.0
2017-Oct-13 05:56N 31°22' E 121°35'0 0.0
2017-Oct-13 05:29N 31°22' E 121°35'0 0.0
2017-Oct-13 04:59N 31°22' E 121°35'0 0.0
2017-Oct-13 04:26N 31°22' E 121°35'0 0.0
2017-Oct-13 03:59N 31°22' E 121°35'0 0.0
2017-Oct-13 03:29N 31°22' E 121°35'0 0.0
2017-Oct-13 02:59N 31°22' E 121°35'0 0.0
2017-Oct-13 02:29N 31°22' E 121°35'0 0.0
2017-Oct-13 01:59N 31°22' E 121°35'0 0.0
2017-Oct-13 01:26N 31°22' E 121°35'0 0.0
2017-Oct-13 00:59N 31°22' E 121°35'0 0.0
2017-Oct-13 00:26N 31°22' E 121°35'0 0.0
2017-Oct-12 23:59N 31°22' E 121°35'0 0.0
2017-Oct-12 23:29N 31°22' E 121°35'0 0.0
2017-Oct-12 22:59N 31°22' E 121°35'0 0.0
2017-Oct-12 22:29N 31°22' E 121°35'0 0.0
2017-Oct-12 21:59N 31°22' E 121°35'0 0.0
2017-Oct-12 21:29N 31°22' E 121°35'0 0.0
2017-Oct-12 20:59N 31°22' E 121°35'0 0.0
2017-Oct-12 20:29N 31°22' E 121°35'0 0.0
2017-Oct-12 19:59N 31°22' E 121°35'0 0.0
2017-Oct-12 19:29N 31°22' E 121°35'0 0.0
2017-Oct-12 18:59N 31°22' E 121°35'0 0.0
2017-Oct-12 18:29N 31°22' E 121°35'0 0.0
2017-Oct-12 17:59N 31°22' E 121°35'0 0.0
2017-Oct-12 17:29N 31°22' E 121°35'0 0.0
2017-Oct-12 16:59N 31°22' E 121°35'0 0.0
2017-Oct-12 16:29N 31°22' E 121°35'0 0.0
2017-Oct-12 15:59N 31°22' E 121°35'0 0.0
2017-Oct-12 15:29N 31°22' E 121°35'0 0.0
2017-Oct-12 14:59N 31°22' E 121°35'0 0.0
2017-Oct-12 14:29N 31°22' E 121°35'0 0.0
2017-Oct-12 13:59N 31°22' E 121°35'0 0.0
2017-Oct-12 13:29N 31°22' E 121°35'0 0.0
2017-Oct-12 12:59N 31°22' E 121°35'0 0.0
2017-Oct-12 12:29N 31°22' E 121°35'0 0.0
2017-Oct-12 11:59N 31°22' E 121°35'0 0.0
2017-Oct-12 11:29N 31°22' E 121°35'0 0.0
2017-Oct-12 10:59N 31°22' E 121°35'0 0.0
2017-Oct-12 10:29N 31°22' E 121°35'0 0.0
2017-Oct-12 09:59N 31°22' E 121°35'0 0.0
2017-Oct-12 09:29N 31°22' E 121°35'0 0.0
2017-Oct-12 08:59N 31°22' E 121°35'0 0.0
2017-Oct-12 08:29N 31°22' E 121°35'0 0.0
2017-Oct-12 07:59N 31°22' E 121°35'0 0.0
2017-Oct-12 07:29N 31°22' E 121°35'0 0.0
2017-Oct-12 07:00N 31°22' E 121°35'1 1.1
2017-Oct-12 06:30N 31°23' E 121°35'4 8.5
2017-Oct-12 06:00N 31°21' E 121°40'611.4
2017-Oct-12 05:30N 31°18' E 121°46'612.0
2017-Oct-12 05:00N 31°16' E 121°52'713.8
2017-Oct-12 04:30N 31°15' E 122°00'613.0
2017-Oct-12 04:00N 31°13' E 122°08'4 9.0
2017-Oct-12 03:30N 31°10' E 122°12'510.3
2017-Oct-12 03:00N 31°07' E 122°17'714.2
2017-Oct-12 02:30N 31°06' E 122°25'612.4
2017-Oct-12 02:00N 31°09' E 122°31'4 7.9
2017-Oct-12 01:30N 31°13' E 122°31'510.5
2017-Oct-12 01:00N 31°18' E 122°32'813.7
2017-Oct-12 00:27N 31°26' E 122°35'714.9
2017-Oct-12 00:00N 31°33' E 122°36'  
2017-Oct-07 10:56N 34°46' E 139°37'920.0
2017-Oct-07 10:30N 34°54' E 139°40'1019.6
2017-Oct-07 10:00N 35°03' E 139°44'817.1
2017-Oct-07 09:30N 35°12' E 139°46'611.1
2017-Oct-07 09:00N 35°17' E 139°45'613.0
2017-Oct-07 08:30N 35°23' E 139°42'815.9
2017-Oct-07 08:00N 35°29' E 139°49'612.7
2017-Oct-07 07:31N 35°35' E 139°48'2 4.2
2017-Oct-07 07:01N 35°37' E 139°47'0 0.1
2017-Oct-07 06:30N 35°37' E 139°47'0 0.0
2017-Oct-07 06:01N 35°37' E 139°47'0 0.0
2017-Oct-07 05:26N 35°37' E 139°47'0 0.0
2017-Oct-07 05:00N 35°37' E 139°47'0 0.0
2017-Oct-07 04:30N 35°37' E 139°47'0 0.0
2017-Oct-07 04:00N 35°37' E 139°47'0 0.0
2017-Oct-07 03:30N 35°37' E 139°47'0 0.0
2017-Oct-07 03:00N 35°37' E 139°47'0 0.0
2017-Oct-07 02:30N 35°37' E 139°47'0 0.0
2017-Oct-07 02:00N 35°37' E 139°47'0 0.0
2017-Oct-07 01:30N 35°37' E 139°47'0 0.0
2017-Oct-07 01:00N 35°37' E 139°47'0 0.0
2017-Oct-07 00:30N 35°37' E 139°47'0 0.0
2017-Oct-07 00:00N 35°37' E 139°47'0 0.0
2017-Oct-06 23:30N 35°37' E 139°47'0 0.1
2017-Oct-06 23:00N 35°37' E 139°47'2 4.7
2017-Oct-06 22:30N 35°35' E 139°48'4 8.8
2017-Oct-06 22:00N 35°31' E 139°52'714.0
2017-Oct-06 21:30N 35°25' E 139°48'612.1
2017-Oct-06 21:00N 35°20' E 139°44'611.0
2017-Oct-06 20:30N 35°15' E 139°47'611.4
2017-Oct-06 20:00N 35°09' E 139°47'5 9.1
2017-Oct-06 19:30N 35°05' E 139°45'3 5.6
2017-Oct-06 19:00N 35°02' E 139°44'4 9.0
2017-Oct-06 18:30N 34°58' E 139°43'510.3
2017-Oct-06 18:00N 34°53' E 139°46'1111.2
2017-Oct-06 17:00N 34°52' E 139°59'611.5
2017-Oct-06 16:29N 34°53' E 140°06'811.6
2017-Oct-06 15:47N 34°55' E 140°16'  
Track history (hours):
 
Tides and Currents Weather Stations Pressure Air Temp Water Temp Dewpoint Dewpoint Depression Visibility Wind Speed Wind Dir Waves Ship Positions

Ever Liven

Last reported at 2017-Oct-14 00:39 UTC. Time now 2017-Oct-17 22:34 UTC.
Position N 30°22' E 121°50'.

Length 335 m; draft 9.5 m.

Type: Ship (hazmat cat D). MMSI: 416481000.

Date/timePositionNaut miles runAvg speedWind from/ knotsBaromVisibWave heightAir tempDewpointWater temp
2017-Oct-14 00:39N 30°22' E 121°50'8 9.6
2017-Oct-13 23:50N 30°23' E 121°59'2 7.3
2017-Oct-13 23:30N 30°23' E 122°02'5 7.4
2017-Oct-13 22:50N 30°23' E 122°07'3 8.0
2017-Oct-13 22:30N 30°23' E 122°10'47 5.1
2017-Oct-13 13:26N 31°05' E 122°33'614.4
2017-Oct-13 13:00N 31°06' E 122°26'714.6
2017-Oct-13 12:30N 31°07' E 122°17'714.5
2017-Oct-13 12:01N 31°11' E 122°10'611.3
2017-Oct-13 11:30N 31°14' E 122°05'714.7
2017-Oct-13 11:01N 31°15' E 121°56'714.3
2017-Oct-13 10:31N 31°17' E 121°48'612.4
2017-Oct-13 10:01N 31°20' E 121°42'510.0
2017-Oct-13 09:31N 31°22' E 121°37'1 2.9
2017-Oct-13 09:01N 31°22' E 121°35'0 0.0
2017-Oct-13 08:31N 31°22' E 121°35'0 0.0
2017-Oct-13 07:59N 31°22' E 121°35'0 0.0
2017-Oct-13 07:29N 31°22' E 121°35'0 0.0
2017-Oct-13 06:59N 31°22' E 121°35'0 0.0
2017-Oct-13 06:29N 31°22' E 121°35'0 0.0
2017-Oct-13 05:56N 31°22' E 121°35'0 0.0
2017-Oct-13 05:29N 31°22' E 121°35'0 0.0
2017-Oct-13 04:59N 31°22' E 121°35'0 0.0
2017-Oct-13 04:26N 31°22' E 121°35'0 0.0
2017-Oct-13 03:59N 31°22' E 121°35'0 0.0
2017-Oct-13 03:29N 31°22' E 121°35'0 0.0
2017-Oct-13 02:59N 31°22' E 121°35'0 0.0
2017-Oct-13 02:29N 31°22' E 121°35'0 0.0
2017-Oct-13 01:59N 31°22' E 121°35'0 0.0
2017-Oct-13 01:26N 31°22' E 121°35'0 0.0
2017-Oct-13 00:59N 31°22' E 121°35'0 0.0
2017-Oct-13 00:26N 31°22' E 121°35'0 0.0
2017-Oct-12 23:59N 31°22' E 121°35'0 0.0
2017-Oct-12 23:29N 31°22' E 121°35'0 0.0
2017-Oct-12 22:59N 31°22' E 121°35'0 0.0
2017-Oct-12 22:29N 31°22' E 121°35'0 0.0
2017-Oct-12 21:59N 31°22' E 121°35'0 0.0
2017-Oct-12 21:29N 31°22' E 121°35'0 0.0
2017-Oct-12 20:59N 31°22' E 121°35'0 0.0
2017-Oct-12 20:29N 31°22' E 121°35'0 0.0
2017-Oct-12 19:59N 31°22' E 121°35'0 0.0
2017-Oct-12 19:29N 31°22' E 121°35'0 0.0
2017-Oct-12 18:59N 31°22' E 121°35'0 0.0
2017-Oct-12 18:29N 31°22' E 121°35'0 0.0
2017-Oct-12 17:59N 31°22' E 121°35'0 0.0
2017-Oct-12 17:29N 31°22' E 121°35'0 0.0
2017-Oct-12 16:59N 31°22' E 121°35'0 0.0
2017-Oct-12 16:29N 31°22' E 121°35'0 0.0
2017-Oct-12 15:59N 31°22' E 121°35'0 0.0
2017-Oct-12 15:29N 31°22' E 121°35'0 0.0
2017-Oct-12 14:59N 31°22' E 121°35'0 0.0
2017-Oct-12 14:29N 31°22' E 121°35'0 0.0
2017-Oct-12 13:59N 31°22' E 121°35'0 0.0
2017-Oct-12 13:29N 31°22' E 121°35'0 0.0
2017-Oct-12 12:59N 31°22' E 121°35'0 0.0
2017-Oct-12 12:29N 31°22' E 121°35'0 0.0
2017-Oct-12 11:59N 31°22' E 121°35'0 0.0
2017-Oct-12 11:29N 31°22' E 121°35'0 0.0
2017-Oct-12 10:59N 31°22' E 121°35'0 0.0
2017-Oct-12 10:29N 31°22' E 121°35'0 0.0
2017-Oct-12 09:59N 31°22' E 121°35'0 0.0
2017-Oct-12 09:29N 31°22' E 121°35'0 0.0
2017-Oct-12 08:59N 31°22' E 121°35'0 0.0
2017-Oct-12 08:29N 31°22' E 121°35'0 0.0
2017-Oct-12 07:59N 31°22' E 121°35'0 0.0
2017-Oct-12 07:29N 31°22' E 121°35'0 0.0
2017-Oct-12 07:00N 31°22' E 121°35'1 1.1
2017-Oct-12 06:30N 31°23' E 121°35'4 8.5
2017-Oct-12 06:00N 31°21' E 121°40'611.4
2017-Oct-12 05:30N 31°18' E 121°46'612.0
2017-Oct-12 05:00N 31°16' E 121°52'713.8
2017-Oct-12 04:30N 31°15' E 122°00'613.0
2017-Oct-12 04:00N 31°13' E 122°08'4 9.0
2017-Oct-12 03:30N 31°10' E 122°12'510.3
2017-Oct-12 03:00N 31°07' E 122°17'714.2
2017-Oct-12 02:30N 31°06' E 122°25'612.4
2017-Oct-12 02:00N 31°09' E 122°31'4 7.9
2017-Oct-12 01:30N 31°13' E 122°31'510.5
2017-Oct-12 01:00N 31°18' E 122°32'813.7
2017-Oct-12 00:27N 31°26' E 122°35'714.9
2017-Oct-12 00:00N 31°33' E 122°36'  
2017-Oct-07 10:56N 34°46' E 139°37'920.0
2017-Oct-07 10:30N 34°54' E 139°40'1019.6
2017-Oct-07 10:00N 35°03' E 139°44'817.1
2017-Oct-07 09:30N 35°12' E 139°46'611.1
2017-Oct-07 09:00N 35°17' E 139°45'613.0
2017-Oct-07 08:30N 35°23' E 139°42'815.9
2017-Oct-07 08:00N 35°29' E 139°49'612.7
2017-Oct-07 07:31N 35°35' E 139°48'2 4.2
2017-Oct-07 07:01N 35°37' E 139°47'0 0.1
2017-Oct-07 06:30N 35°37' E 139°47'0 0.0
2017-Oct-07 06:01N 35°37' E 139°47'0 0.0
2017-Oct-07 05:26N 35°37' E 139°47'0 0.0
2017-Oct-07 05:00N 35°37' E 139°47'0 0.0
2017-Oct-07 04:30N 35°37' E 139°47'0 0.0
2017-Oct-07 04:00N 35°37' E 139°47'0 0.0
2017-Oct-07 03:30N 35°37' E 139°47'0 0.0
2017-Oct-07 03:00N 35°37' E 139°47'0 0.0
2017-Oct-07 02:30N 35°37' E 139°47'0 0.0
2017-Oct-07 02:00N 35°37' E 139°47'0 0.0
2017-Oct-07 01:30N 35°37' E 139°47'0 0.0
2017-Oct-07 01:00N 35°37' E 139°47'0 0.0
2017-Oct-07 00:30N 35°37' E 139°47'0 0.0
2017-Oct-07 00:00N 35°37' E 139°47'0 0.0
2017-Oct-06 23:30N 35°37' E 139°47'0 0.1
2017-Oct-06 23:00N 35°37' E 139°47'2 4.7
2017-Oct-06 22:30N 35°35' E 139°48'4 8.8
2017-Oct-06 22:00N 35°31' E 139°52'714.0
2017-Oct-06 21:30N 35°25' E 139°48'612.1
2017-Oct-06 21:00N 35°20' E 139°44'611.0
2017-Oct-06 20:30N 35°15' E 139°47'611.4
2017-Oct-06 20:00N 35°09' E 139°47'5 9.1
2017-Oct-06 19:30N 35°05' E 139°45'3 5.6
2017-Oct-06 19:00N 35°02' E 139°44'4 9.0
2017-Oct-06 18:30N 34°58' E 139°43'510.3
2017-Oct-06 18:00N 34°53' E 139°46'1111.2
2017-Oct-06 17:00N 34°52' E 139°59'611.5
2017-Oct-06 16:29N 34°53' E 140°06'811.6
2017-Oct-06 15:47N 34°55' E 140°16'  

Dump ship's entire track history